createdAt,value
2022-12-08T00:02:20.270Z,48.80
2022-12-08T00:05:41.406Z,43.65
2022-12-08T00:09:02.196Z,48.05
2022-12-08T00:12:06.028Z,48.50
2022-12-08T00:15:08.487Z,48.40
2022-12-08T00:18:10.777Z,45.60
2022-12-08T00:21:13.061Z,45.47
2022-12-08T00:24:15.416Z,43.67
2022-12-08T00:27:18.191Z,46.17
2022-12-08T00:30:20.889Z,46.57
2022-12-08T00:33:23.267Z,53.60
2022-12-08T00:36:25.641Z,45.42
2022-12-08T00:39:27.990Z,44.83
2022-12-08T00:42:30.293Z,44.93
2022-12-08T00:45:32.611Z,49.87
2022-12-08T00:48:35.104Z,45.72
2022-12-08T00:51:37.705Z,40.45
2022-12-08T00:54:39.970Z,33.40
2022-12-08T00:57:42.228Z,44.00
2022-12-08T01:00:44.654Z,39.90
2022-12-08T01:03:47.035Z,50.70
2022-12-08T01:06:49.603Z,45.20
2022-12-08T01:09:52.886Z,51.75
2022-12-08T01:12:55.142Z,42.67
2022-12-08T01:15:57.402Z,42.80
2022-12-08T01:19:01.161Z,42.85
2022-12-08T01:22:03.575Z,43.05
2022-12-08T01:25:06.815Z,41.50
2022-12-08T01:28:09.086Z,39.50
2022-12-08T01:31:21.430Z,45.47
2022-12-08T01:34:23.792Z,40.20
2022-12-08T01:37:26.086Z,45.03
2022-12-08T01:40:28.461Z,43.53
2022-12-08T01:44:09.482Z,42.43
2022-12-08T01:47:12.230Z,41.90
2022-12-08T01:50:16.305Z,36.42
2022-12-08T01:53:30.634Z,42.72
2022-12-08T01:56:38.033Z,42.03
2022-12-08T01:59:45.361Z,39.40
2022-12-08T02:02:56.960Z,37.43
2022-12-08T02:05:59.216Z,37.28
2022-12-08T02:09:02.051Z,32.47
2022-12-08T02:12:04.704Z,34.03
2022-12-08T02:15:07.578Z,32.40
2022-12-08T02:18:26.009Z,36.40
2022-12-08T02:21:47.046Z,37.08
2022-12-08T02:25:07.717Z,34.63
2022-12-08T02:28:26.906Z,36.30
2022-12-08T02:31:44.417Z,31.97
2022-12-08T02:35:08.713Z,31.83
2022-12-08T02:38:33.590Z,35.80
2022-12-08T02:41:49.580Z,33.17
2022-12-08T02:44:58.156Z,32.03
2022-12-08T02:48:00.758Z,35.63
2022-12-08T02:51:03.549Z,32.95
2022-12-08T02:54:06.523Z,32.15
2022-12-08T02:57:23.941Z,34.10
2022-12-08T03:00:30.116Z,29.17
2022-12-08T03:03:41.619Z,36.93
2022-12-08T03:06:52.983Z,34.60
2022-12-08T03:10:05.290Z,30.15
2022-12-08T03:13:16.919Z,36.05
2022-12-08T03:16:23.649Z,33.17
2022-12-08T03:19:33.280Z,28.33
2022-12-08T03:22:35.859Z,35.17
2022-12-08T03:25:47.093Z,29.10
2022-12-08T03:28:49.399Z,31.98
2022-12-08T03:31:58.118Z,33.08
2022-12-08T03:35:03.575Z,33.43
2022-12-08T03:38:10.795Z,34.65
2022-12-08T03:41:18.788Z,33.63
2022-12-08T03:44:21.083Z,32.63
2022-12-08T03:47:23.492Z,36.03
2022-12-08T03:50:25.962Z,33.60
2022-12-08T03:53:28.346Z,32.40
2022-12-08T03:56:33.337Z,40.05
2022-12-08T03:59:35.637Z,33.83
2022-12-08T04:02:37.983Z,30.52
2022-12-08T04:05:40.273Z,37.23
2022-12-08T04:08:42.627Z,33.85
2022-12-08T04:11:44.920Z,29.92
2022-12-08T04:14:47.797Z,32.20
2022-12-08T04:17:50.103Z,33.20
2022-12-08T04:20:53.334Z,31.63
2022-12-08T04:24:00.814Z,34.92
2022-12-08T04:27:03.815Z,39.40
2022-12-08T04:30:07.028Z,33.70
2022-12-08T04:33:09.698Z,35.00
2022-12-08T04:36:12.012Z,31.73
2022-12-08T04:39:14.399Z,28.40
2022-12-08T04:42:16.667Z,30.27
2022-12-08T04:45:19.237Z,35.05
2022-12-08T04:48:21.551Z,33.45
2022-12-08T04:51:23.908Z,33.83
2022-12-08T04:54:27.143Z,30.52
2022-12-08T04:57:29.560Z,36.95
2022-12-08T05:00:31.800Z,38.05
2022-12-08T05:03:34.518Z,36.33
2022-12-08T05:06:36.778Z,29.30
2022-12-08T05:09:39.219Z,36.50
2022-12-08T05:12:41.585Z,34.20
2022-12-08T05:15:44.128Z,35.03
2022-12-08T05:18:46.525Z,34.47
2022-12-08T05:21:48.926Z,35.50
2022-12-08T05:24:51.171Z,41.33
2022-12-08T05:28:06.152Z,50.22
2022-12-08T05:31:16.941Z,37.45
2022-12-08T05:34:19.355Z,33.28
2022-12-08T05:37:21.647Z,32.40
2022-12-08T05:40:23.907Z,35.42
2022-12-08T05:43:27.136Z,42.22
2022-12-08T05:46:29.673Z,33.80
2022-12-08T05:49:32.095Z,34.42
2022-12-08T05:52:34.446Z,30.13
2022-12-08T05:55:37.923Z,28.60
2022-12-08T05:58:40.305Z,30.13
2022-12-08T06:01:43.012Z,32.08
2022-12-08T06:04:45.527Z,30.15
2022-12-08T06:07:47.814Z,29.37
2022-12-08T06:10:50.301Z,32.42
2022-12-08T06:13:53.106Z,31.88
2022-12-08T06:16:55.512Z,29.13
2022-12-08T06:19:57.858Z,30.48
2022-12-08T06:23:00.271Z,30.93
2022-12-08T06:26:07.832Z,29.88
2022-12-08T06:29:10.510Z,32.30
2022-12-08T06:32:12.983Z,33.13
2022-12-08T06:35:15.387Z,30.90
2022-12-08T06:38:17.720Z,28.70
2022-12-08T06:41:20.103Z,30.33
2022-12-08T06:44:22.534Z,29.90
2022-12-08T06:47:26.422Z,39.13
2022-12-08T06:50:28.985Z,26.80
2022-12-08T06:53:31.271Z,32.00
2022-12-08T06:56:33.563Z,33.25
2022-12-08T06:59:35.793Z,27.75
2022-12-08T07:02:38.963Z,26.88
2022-12-08T07:05:41.897Z,28.60
2022-12-08T07:08:44.346Z,34.43
2022-12-08T07:11:46.714Z,35.28
2022-12-08T07:14:48.971Z,32.38
2022-12-08T07:17:56.293Z,34.70
2022-12-08T07:21:06.146Z,32.35
2022-12-08T07:24:08.660Z,35.80
2022-12-08T07:27:10.921Z,40.67
2022-12-08T07:30:13.918Z,43.00
2022-12-08T07:33:16.193Z,45.13
2022-12-08T07:36:18.856Z,52.47
2022-12-08T07:39:21.246Z,51.73
2022-12-08T07:42:23.496Z,44.90
2022-12-08T07:45:31.449Z,46.13
2022-12-08T07:48:34.457Z,44.72
2022-12-08T07:51:36.726Z,50.97
2022-12-08T07:54:39.198Z,48.07
2022-12-08T07:57:42.763Z,37.58
2022-12-08T08:00:45.120Z,33.70
2022-12-08T08:03:47.517Z,31.38
2022-12-08T08:06:50.043Z,38.60
2022-12-08T08:09:52.301Z,36.43
2022-12-08T08:12:54.927Z,40.45
2022-12-08T08:16:04.398Z,39.55
2022-12-08T08:19:06.795Z,51.03
2022-12-08T08:22:09.208Z,44.33
2022-12-08T08:25:11.499Z,44.93
2022-12-08T08:28:13.779Z,45.25
2022-12-08T08:31:16.576Z,43.17
2022-12-08T08:34:18.912Z,35.35
2022-12-08T08:37:21.199Z,37.22
2022-12-08T08:40:23.767Z,32.30
2022-12-08T08:43:32.947Z,39.47
2022-12-08T08:46:38.636Z,29.23
2022-12-08T08:49:41.144Z,30.60
2022-12-08T08:52:43.417Z,29.48
2022-12-08T08:55:45.684Z,28.17
2022-12-08T08:58:49.650Z,28.88
2022-12-08T09:01:52.070Z,41.10
2022-12-08T09:04:54.491Z,40.10
2022-12-08T09:07:56.819Z,38.13
2022-12-08T09:10:59.117Z,33.70
2022-12-08T09:14:01.488Z,33.45
2022-12-08T09:17:04.100Z,39.67
2022-12-08T09:20:07.723Z,38.25
2022-12-08T09:23:13.006Z,37.42
2022-12-08T09:26:15.464Z,40.00
2022-12-08T09:29:17.886Z,33.50
2022-12-08T09:32:20.385Z,31.15
2022-12-08T09:35:22.728Z,34.67
2022-12-08T09:38:25.005Z,36.08
2022-12-08T09:41:44.892Z,20.87
2022-12-08T09:44:57.344Z,23.20
2022-12-08T09:48:20.221Z,19.10
2022-12-08T09:51:27.910Z,20.02
2022-12-08T09:54:39.206Z,24.38
2022-12-08T09:57:41.622Z,34.60
2022-12-08T10:00:44.037Z,36.83
2022-12-08T10:04:06.723Z,38.58
2022-12-08T10:07:27.676Z,36.58
2022-12-08T10:10:38.750Z,29.30
2022-12-08T10:14:02.732Z,29.67
2022-12-08T10:17:14.896Z,27.02
2022-12-08T10:20:21.159Z,32.15
2022-12-08T10:23:26.710Z,35.58
2022-12-08T10:26:32.802Z,27.50
2022-12-08T10:29:35.064Z,24.93
2022-12-08T10:32:37.316Z,28.50
2022-12-08T10:36:00.616Z,28.38
2022-12-08T10:39:02.913Z,25.73
2022-12-08T10:42:09.915Z,30.00
2022-12-08T10:45:18.111Z,21.23
2022-12-08T10:48:23.118Z,19.63
2022-12-08T10:51:28.607Z,21.50
2022-12-08T10:54:37.404Z,20.35
2022-12-08T10:57:39.683Z,20.98
2022-12-08T11:00:42.033Z,20.20
2022-12-08T11:03:51.545Z,23.13
2022-12-08T11:06:53.879Z,22.00
2022-12-08T11:09:58.316Z,19.08
2022-12-08T11:13:02.613Z,22.83
2022-12-08T11:16:06.256Z,20.63
2022-12-08T11:19:15.002Z,21.98
2022-12-08T11:22:29.338Z,20.90
2022-12-08T11:25:31.539Z,18.40
2022-12-08T11:28:33.891Z,19.00
2022-12-08T11:32:03.035Z,23.77
2022-12-08T11:35:07.029Z,25.77
2022-12-08T11:38:21.919Z,18.48
2022-12-08T11:41:29.032Z,19.77
2022-12-08T11:44:36.075Z,20.25
2022-12-08T11:47:55.830Z,21.20
2022-12-08T11:51:06.237Z,17.90
2022-12-08T11:54:31.198Z,20.70
2022-12-08T11:57:33.503Z,20.65
2022-12-08T12:00:35.873Z,26.30
2022-12-08T12:03:45.012Z,24.67
2022-12-08T12:06:55.806Z,21.38
2022-12-08T12:10:20.937Z,19.60
2022-12-08T12:13:32.098Z,24.58
2022-12-08T12:16:37.298Z,24.13
2022-12-08T12:19:40.214Z,27.43
2022-12-08T12:22:44.833Z,19.92
2022-12-08T12:26:02.883Z,22.23
2022-12-08T12:29:16.846Z,22.33
2022-12-08T12:32:19.268Z,19.58
2022-12-08T12:35:27.817Z,22.60
2022-12-08T12:38:55.965Z,18.67
2022-12-08T12:42:05.649Z,16.42
2022-12-08T12:45:32.502Z,18.25
2022-12-08T12:48:34.804Z,22.17
2022-12-08T12:51:45.024Z,20.20
2022-12-08T12:54:50.189Z,18.10
2022-12-08T12:57:58.458Z,15.93
2022-12-08T13:01:12.955Z,17.33
2022-12-08T13:04:16.341Z,20.98
2022-12-08T13:07:23.731Z,16.67
2022-12-08T13:10:29.193Z,16.20
2022-12-08T13:13:31.656Z,17.77
2022-12-08T13:16:40.362Z,15.23
2022-12-08T13:19:47.533Z,18.45
2022-12-08T13:22:53.707Z,17.87
2022-12-08T13:26:23.549Z,16.23
2022-12-08T13:29:26.534Z,24.55
2022-12-08T13:32:29.334Z,19.00
2022-12-08T13:35:36.840Z,21.98
2022-12-08T13:38:39.422Z,26.27
2022-12-08T13:41:44.923Z,30.13
2022-12-08T13:45:59.217Z,22.02
2022-12-08T13:50:42.713Z,25.98
2022-12-08T13:59:07.158Z,21.13
2022-12-08T14:02:39.530Z,23.60
2022-12-08T14:09:12.155Z,24.88
2022-12-08T14:12:21.781Z,25.03
2022-12-08T14:15:25.612Z,20.20
2022-12-08T14:18:31.859Z,23.40
2022-12-08T14:21:36.224Z,21.33
2022-12-08T14:24:40.018Z,22.15
2022-12-08T14:27:42.931Z,19.03
2022-12-08T14:30:45.332Z,22.33
2022-12-08T14:33:51.788Z,19.42
2022-12-08T14:36:58.160Z,22.67
2022-12-08T14:40:06.786Z,27.63
2022-12-08T14:43:09.256Z,21.40
2022-12-08T14:46:22.695Z,24.35
2022-12-08T14:49:51.748Z,24.55
2022-12-08T14:52:54.031Z,26.17
2022-12-08T14:55:56.354Z,24.08
2022-12-08T14:59:03.303Z,22.83
2022-12-08T15:03:16.958Z,22.08
2022-12-08T15:06:22.756Z,23.02
2022-12-08T15:09:32.806Z,24.27
2022-12-08T15:12:35.144Z,23.27
2022-12-08T15:15:51.089Z,26.47
2022-12-08T15:19:02.791Z,26.55
2022-12-08T15:22:14.096Z,28.17
2022-12-08T15:25:16.431Z,24.65
2022-12-08T15:28:24.040Z,24.95
2022-12-08T15:31:28.923Z,27.27
2022-12-08T15:34:31.729Z,26.88
2022-12-08T15:37:33.993Z,24.90
2022-12-08T15:40:36.244Z,25.65
2022-12-08T15:43:38.511Z,25.92
2022-12-08T15:46:40.801Z,25.17
2022-12-08T15:49:43.363Z,26.13
2022-12-08T15:52:45.726Z,23.83
2022-12-08T15:56:10.876Z,24.73
2022-12-08T15:59:15.712Z,25.33
2022-12-08T16:02:22.511Z,25.20
2022-12-08T16:05:44.295Z,29.00
2022-12-08T16:08:56.095Z,27.75
2022-12-08T16:13:48.168Z,25.02
2022-12-08T16:16:19.677Z,33.97
2022-12-08T16:19:21.985Z,27.83
2022-12-08T16:26:17.141Z,28.65
2022-12-08T16:29:18.524Z,29.27
2022-12-08T16:32:20.926Z,23.98
2022-12-08T16:35:23.206Z,24.63
2022-12-08T16:38:25.464Z,21.25
2022-12-08T16:41:46.376Z,23.55
2022-12-08T16:44:48.651Z,21.63
2022-12-08T16:47:56.465Z,24.92
2022-12-08T16:50:58.799Z,22.80
2022-12-08T16:54:01.120Z,21.80
2022-12-08T16:57:03.374Z,22.38
2022-12-08T17:00:07.702Z,23.50
2022-12-08T17:03:11.810Z,23.58
2022-12-08T17:06:18.077Z,22.67
2022-12-08T17:09:20.466Z,24.05
2022-12-08T17:12:22.769Z,27.75
2022-12-08T17:15:25.835Z,71.22
2022-12-08T17:18:28.124Z,68.57
2022-12-08T17:21:30.499Z,53.50
2022-12-08T17:24:32.771Z,28.83
2022-12-08T17:27:36.112Z,44.72
2022-12-08T17:30:38.771Z,34.08
2022-12-08T17:33:41.286Z,30.63
2022-12-08T17:36:43.593Z,28.83
2022-12-08T17:39:45.971Z,25.65
2022-12-08T17:42:48.249Z,25.50
2022-12-08T17:45:50.560Z,23.13
2022-12-08T17:48:53.619Z,24.88
2022-12-08T17:51:58.679Z,21.90
2022-12-08T17:55:00.960Z,25.02
2022-12-08T17:58:04.424Z,23.50
2022-12-08T18:01:10.827Z,21.50
2022-12-08T18:04:13.575Z,22.60
2022-12-08T18:07:18.031Z,22.63
2022-12-08T18:10:20.547Z,20.88
2022-12-08T18:13:22.780Z,23.27
2022-12-08T18:16:26.662Z,23.02
2022-12-08T18:19:29.006Z,20.38
2022-12-08T18:22:31.226Z,20.87
2022-12-08T18:25:33.478Z,22.48
2022-12-08T18:28:36.720Z,18.30
2022-12-08T18:31:39.038Z,16.42
2022-12-08T18:34:41.462Z,18.85
2022-12-08T18:37:43.798Z,14.17
2022-12-08T18:40:46.107Z,17.08
2022-12-08T18:43:48.426Z,18.58
2022-12-08T18:46:51.005Z,18.60
2022-12-08T18:49:53.369Z,16.25
2022-12-08T18:52:55.641Z,19.40
2022-12-08T18:55:57.895Z,21.92
2022-12-08T18:59:03.925Z,173.20
2022-12-08T19:02:06.619Z,82.75
2022-12-08T19:05:10.613Z,88.85
2022-12-08T19:08:13.091Z,24.37
2022-12-08T19:11:20.477Z,20.88
2022-12-08T19:14:27.771Z,22.52
2022-12-08T19:17:31.139Z,21.02
2022-12-08T19:20:33.523Z,19.48
2022-12-08T19:23:35.879Z,22.37
2022-12-08T19:26:38.770Z,24.67
2022-12-08T19:29:41.051Z,23.05
2022-12-08T19:32:43.357Z,22.42
2022-12-08T19:35:52.192Z,23.73
2022-12-08T19:39:14.322Z,24.63
2022-12-08T19:42:37.571Z,26.42
2022-12-08T19:45:39.969Z,21.67
2022-12-08T19:48:42.396Z,24.27
2022-12-08T19:51:44.867Z,24.67
2022-12-08T19:54:47.470Z,29.37
2022-12-08T19:57:50.968Z,25.30
2022-12-08T20:00:53.437Z,25.98
2022-12-08T20:03:55.793Z,24.17
2022-12-08T20:06:58.172Z,24.63
2022-12-08T20:10:00.726Z,24.03
2022-12-08T20:13:22.086Z,27.27
2022-12-08T20:16:24.538Z,24.95
2022-12-08T20:19:27.424Z,29.55
2022-12-08T20:22:32.120Z,28.42
2022-12-08T20:25:35.000Z,28.87
2022-12-08T20:28:37.819Z,27.25
2022-12-08T20:31:40.132Z,26.02
2022-12-08T20:34:42.437Z,26.65
2022-12-08T20:37:44.737Z,25.65
2022-12-08T20:40:47.614Z,28.73
2022-12-08T20:43:50.607Z,25.23
2022-12-08T20:46:53.320Z,29.23
2022-12-08T20:49:55.740Z,29.38
2022-12-08T20:52:58.558Z,25.25
2022-12-08T20:56:02.942Z,29.90
2022-12-08T20:59:05.885Z,25.17
2022-12-08T21:02:10.645Z,26.70
2022-12-08T21:05:13.272Z,28.20
2022-12-08T21:08:15.908Z,28.48
2022-12-08T21:11:18.667Z,29.93
2022-12-08T21:14:21.124Z,28.88
2022-12-08T21:17:23.724Z,30.70
2022-12-08T21:20:26.274Z,26.63
2022-12-08T21:23:28.946Z,29.52
2022-12-08T21:26:31.827Z,27.63
2022-12-08T21:29:34.330Z,28.52
2022-12-08T21:32:39.148Z,28.90
2022-12-08T21:35:41.591Z,32.95
2022-12-08T21:38:44.594Z,30.90
2022-12-08T21:42:05.923Z,29.07
2022-12-08T21:45:09.032Z,28.00
2022-12-08T21:48:12.197Z,34.40
2022-12-08T21:51:14.861Z,30.25
2022-12-08T21:54:19.284Z,29.23
2022-12-08T21:57:21.926Z,29.70
2022-12-08T22:00:24.770Z,31.17
2022-12-08T22:03:28.501Z,33.95
2022-12-08T22:06:31.044Z,27.65
2022-12-08T22:09:33.522Z,31.05
2022-12-08T22:12:37.168Z,30.60
2022-12-08T22:15:39.616Z,31.25
2022-12-08T22:18:42.606Z,28.45
2022-12-08T22:21:45.200Z,31.20
2022-12-08T22:24:47.887Z,31.00
2022-12-08T22:27:50.163Z,28.80
2022-12-08T22:30:52.611Z,31.75
2022-12-08T22:33:55.112Z,29.50
2022-12-08T22:36:57.633Z,27.48
2022-12-08T22:40:00.173Z,32.75
2022-12-08T22:43:02.530Z,33.60
2022-12-08T22:46:14.999Z,30.00
2022-12-08T22:49:17.297Z,30.70
2022-12-08T22:52:19.593Z,29.23
2022-12-08T22:55:21.873Z,30.80
2022-12-08T22:58:24.319Z,27.40
2022-12-08T23:01:29.594Z,30.67
2022-12-08T23:04:32.088Z,30.77
2022-12-08T23:07:34.555Z,32.05
2022-12-08T23:10:36.937Z,27.05
2022-12-08T23:13:42.263Z,29.70
2022-12-08T23:16:44.719Z,32.10
2022-12-08T23:19:47.349Z,31.90
2022-12-08T23:22:49.742Z,31.90
2022-12-08T23:25:52.283Z,27.58
2022-12-08T23:28:55.476Z,34.87
2022-12-08T23:31:58.382Z,33.40
2022-12-08T23:35:00.882Z,31.17
2022-12-08T23:38:03.335Z,32.55
2022-12-08T23:41:07.856Z,30.45
2022-12-08T23:44:12.418Z,32.27
2022-12-08T23:47:14.855Z,26.23
2022-12-08T23:50:17.295Z,31.13
2022-12-08T23:53:19.584Z,31.25
2022-12-08T23:56:24.335Z,32.97
2022-12-08T23:59:31.097Z,31.37
